2012 UA 5k Run and Pub Crawl

back to results

Aug. 13, 2012

2012 UA 5k Run and Pub Crawl
Ann Arbor, MI
Provided by RF Timing


UA 5k Run and Pub Crawl
Age Group Results
August 13, 2012
Results By RF Timing Running Fit

Female Open Winners

Place Name City Bib NoAge OverallChip TimeGun Time Pace
1 Gianna Lete Ann Arbor MI 256 43 1 21:36.1 21:36.1 6:57/M

Female 0 and under

Place Name City Bib NoAge OverallChip TimeGun Time Pace
1 Kate Bennett Ann Arbor 238 0 15 24:25.5 24:37.1 7:53/M
2 Meredith Petty Ann Arbor MI 268 0 16 24:25.5 24:37.6 7:53/M
3 Ashlee Lewis Adrian MI 94 0 48 28:07.7 28:38.1 9:04/M
4 Lisa Swanick Belleville MI 154 0 116 33:26.5 33:41.6 10:47/M

Female 5 to 9

Place Name City Bib NoAge OverallChip TimeGun Time Pace
1 Avery Crawford Los Gatos CA 5 6 136 40:22.5 40:55.9 13:01/M

Female 10 to 14

Place Name City Bib NoAge OverallChip TimeGun Time Pace
1 Emily Diehl Saline MI 43 14 73 29:33.5 29:35.6 9:32/M

Female 15 to 19

Place Name City Bib NoAge OverallChip TimeGun Time Pace
1 Anna Ziff Ann Arbor 284 18 60 28:55.3 29:18.3 9:20/M

Female 20 to 24

Place Name City Bib NoAge OverallChip TimeGun Time Pace
1 Abby Fougerousse Livonia MI 249 22 2 21:40.1 21:49.6 6:59/M
2 Molly Harris Ann Arbor MI 77 22 3 21:59.9 21:59.9 7:05/M
3 Sylvia Fisher Adrian MI 57 20 17 24:40.8 24:53.4 7:57/M
4 Annette Hauswirth Ann Arbor MI 78 23 31 26:23.2 26:52.6 8:31/M
5 Colleen McGavin 332 24 42 27:39.3 27:54.3 8:55/M
6 Tatiana McCulley Ann Arbor MI 259 24 45 27:45.8 27:52.9 8:57/M
7 Sarah Pfeiffle Ypsilanti MI 127 24 61 28:59.0 29:34.3 9:21/M
8 Sarah Rockol Garden City MI 134 23 62 29:02.6 29:38.0 9:22/M
9 Judy Wong Ann Arbor MI 174 24 85 30:43.4 31:12.8 9:55/M
10 Caitlin Siegel Riverview 273 23 129 37:48.6 38:05.3 12:12/M
11 Tress Sanders Pinckney MI 137 24 132 38:46.2 39:11.7 12:30/M
12 Chelsea Lehrbass Scottville 216 22 144 44:00.3 44:16.4 14:12/M
13 Jordan Cusumano Brighton 202 22 146 44:02.9 44:19.4 14:12/M

Female 25 to 29

Place Name City Bib NoAge OverallChip TimeGun Time Pace
1 Kirsten Terry Ann Arbor 280 27 8 23:35.0 23:42.1 7:36/M
2 Nell Compernolle Ann Arbor MI 33 28 11 23:48.9 23:58.4 7:41/M
3 Stephanie Gerkin Howell MI 67 28 14 24:07.3 24:17.7 7:47/M
4 Leah Bauer Ann Arbor 199 25 24 26:02.8 26:18.5 8:24/M
5 Kayla Renier Ann Arbor 226 27 25 26:03.8 26:18.1 8:24/M
6 Lauren Sigler 335 27 27 26:14.5 28:00.0 8:28/M
7 Lauren Grove Fenton MI 71 25 30 26:21.4 26:50.6 8:30/M
8 Stephanie Little Climax MI 96 28 36 26:55.0 27:10.6 8:41/M
9 Kelly Cates Plymouth MI 29 28 38 27:01.5 27:13.6 8:43/M
10 Kristen Sukraw Ann Arbor 234 25 43 27:40.3 27:56.4 8:55/M
11 Melisa Susanto Ann Arbor MI 152 27 54 28:33.4 29:03.1 9:13/M
12 Natalie McCauley Ypsilanti MI 104 26 59 28:53.3 29:14.4 9:19/M
13 Rosa Bushkuhl Ann Arbor MI 23 26 64 29:06.3 29:31.4 9:23/M
14 Kim Fleming Dumont 248 25 70 29:31.9 29:43.1 9:31/M
15 Abigail Smith Ann Arbor MI 146 27 80 30:23.6 30:31.1 9:48/M
16 Julia Gower Adrian MI 70 27 81 30:28.3 30:39.6 9:50/M
17 Kenzie Latham Ann Arbor MI 92 29 96 31:43.7 31:53.2 10:14/M
18 Kristen Wiseman Ypsilanti MI 172 28 106 32:28.5 32:48.1 10:28/M
19 Emily Flinkstrom Ann Arbor MI 58 28 110 32:56.1 33:25.6 10:37/M
20 Nora Hall Ann Arbor MI 73 28 124 35:25.4 35:54.0 11:25/M
21 Hilary Braley Ann Arbor MI 18 27 140 41:26.0 42:00.2 13:22/M

Female 30 to 34

Place Name City Bib NoAge OverallChip TimeGun Time Pace
1 Maya Aravind Ann Arbor 198 30 5 22:34.2 22:41.3 7:17/M
2 Nicole Schilde Ypsilanti 270 33 6 23:10.8 23:16.1 7:28/M
3 Teresa Taylor Royal Oak MI 155 34 7 23:29.0 23:34.4 7:35/M
4 Anita Ramamurthy Canton 225 31 18 25:17.5 25:22.1 8:09/M
5 Sarah Bellmann 190 33 19 25:23.5 25:27.2 8:11/M
6 Shannon Racine Chelsea MI 129 33 32 26:26.2 26:43.7 8:32/M
7 Amanda Nichols Ann Arbor MI 220 31 33 26:39.9 27:06.2 8:36/M
8 Jessica Sigg Naples 278 30 47 27:58.8 28:03.1 9:01/M
9 Liz Koval Manchester MI 88 34 49 28:07.8 28:33.5 9:04/M
10 Courtney Thompson Ann Arbor MI 156 32 52 28:23.1 28:30.1 9:09/M
11 Kristal Brown Clinton MI 20 34 53 28:25.2 28:50.7 9:10/M
12 Bonnie Memering Wyandotte MI 107 33 55 28:37.5 28:55.1 9:14/M
13 Linda Stuckey Ypsilanti MI 150 32 56 28:44.5 29:07.5 9:16/M
14 Regine Caruthers Ypsilanti MI 26 32 58 28:45.4 29:07.8 9:16/M
15 Larra Aquino Ann Arbor 237 31 63 29:05.2 29:13.4 9:23/M
16 Lisa Gill Howell MI 69 32 66 29:20.5 29:44.6 9:28/M
17 Lisa Short Beverly Hills MI 331 32 68 29:29.5 29:50.7 9:31/M
18 Christina Cortez 297 31 72 29:33.1 29:44.5 9:32/M
19 Leah Shever Chelsea MI 141 32 76 29:45.3 30:03.4 9:36/M
20 Katy Fritts Ann Arbor MI 62 32 77 29:48.1 30:07.7 9:37/M
21 Kristina Haley Dexter MI 72 32 78 29:48.3 30:06.6 9:37/M
22 Shelly Jarenski Ann Arbor MI 322 34 79 30:14.5 30:20.6 9:45/M
23 Joanna Elliott Ypsilanti MI 49 31 83 30:31.1 30:37.8 9:51/M
24 Lidsay Babian 323 33 86 30:44.3 31:17.5 9:55/M
25 Angela Slavick Westland MI 145 32 91 31:15.6 31:15.6 10:05/M
26 Jessica Black Ypsilanti MI 12 33 98 31:49.8 32:09.5 10:16/M
27 Jaye Peterson Ypsilanti MI 126 34 99 31:50.0 32:09.7 10:16/M
28 Tara Ward Whitmore Lake MI 166 31 103 32:09.4 32:20.0 10:22/M
29 Laura Hillson Redford MI 333 31 107 32:31.2 32:52.2 10:29/M
30 Priya Bhat Ann Arbor MI 10 33 111 32:57.3 33:23.4 10:38/M
31 Cherelle Weber Belleville MI 167 31 115 33:26.4 33:42.1 10:47/M
32 Renee Zaddock Wyandotte MI 177 34 117 33:37.1 33:55.4 10:51/M
33 Gretchen HarringtoCanton MI 75 31 123 35:12.0 35:48.6 11:21/M
34 Lauren Abro Farmington Hills MI 1 31 126 36:03.7 36:19.4 11:38/M
35 Elizabeth Kerwin Bloomfield Hills MI 87 30 142 43:51.6 44:15.8 14:09/M
36 Sarah Scott 310 30 148 44:08.0 44:11.3 14:14/M

Female 35 to 39

Place Name City Bib NoAge OverallChip TimeGun Time Pace
1 Naomi Toben Ypsilanti MI 158 35 4 22:22.9 22:31.1 7:13/M
2 Theresa Mull Plymouth MI 219 39 9 23:35.1 23:51.5 7:36/M
3 Donna Levos Saline 257 39 28 26:16.4 26:36.4 8:28/M
4 Jennifer Javor Plymouth MI 83 35 37 27:01.2 27:13.3 8:43/M
5 Christie ScharswakHowell 227 36 41 27:37.1 28:03.2 8:55/M
6 Megan Scribner Sterling Heights MI 140 35 51 28:22.0 28:34.6 9:09/M
7 Julie Lothamer Howell MI 217 39 57 28:44.8 29:10.9 9:16/M
8 Abbie Devee Ypsilanti MI 41 37 75 29:34.1 29:41.1 9:32/M
9 Chelsea Dulin Ypsilanti MI 46 39 84 30:41.7 30:48.5 9:54/M
10 Rebecca Briggs 293 37 88 31:09.9 31:30.3 10:03/M
11 Melissa Gutowski 294 37 89 31:11.8 31:32.5 10:04/M
12 Marta Misztura Livonia MI 263 36 102 32:05.5 32:20.2 10:21/M
13 Kate Steele Adrian MI 148 35 104 32:20.8 32:33.0 10:26/M
14 Melissa Roberts Saline MI 269 35 137 40:44.8 41:12.4 13:08/M
15 Devonne Cooper Monroe MI 34 35 139 41:08.5 41:39.9 13:16/M
16 Sarah Karpinen Clinton Township MI 85 39 141 43:50.1 44:14.3 14:08/M

Female 40 to 44

Place Name City Bib NoAge OverallChip TimeGun Time Pace
1 Elizabeth SchweersBelleville MI 272 43 10 23:39.0 23:49.6 7:38/M
2 Jennifer RasmussenDexter MI 132 41 12 23:53.1 23:53.1 7:42/M
3 Denise Dashner Temperance MI 38 42 13 24:01.5 24:09.6 7:45/M
4 Gerri Harmer Brownstown MI 74 44 22 25:36.4 25:52.9 8:15/M
5 Nancy Herlocher Ann Arbor MI 250 44 35 26:52.8 27:06.2 8:40/M
6 Carrie Wojan Ann Arbor MI 173 40 39 27:34.5 27:44.1 8:54/M
7 Kristi Barry Plymouth MI 7 40 44 27:42.3 27:51.6 8:56/M
8 Tracy Bragiel Livonia MI 16 40 46 27:48.3 27:56.6 8:58/M
9 Alysa Konye Howell 212 41 65 29:07.1 29:33.5 9:24/M
10 Susan Donaldson 320 42 87 30:46.5 31:20.1 9:55/M
11 Rochelle Chapman Ann Arbor MI 302 43 92 31:24.5 31:51.0 10:08/M
12 Marie Mills Ann Arbor MI 110 43 94 31:31.8 31:58.9 10:10/M
13 Heather Doll San Mateo CA 44 41 95 31:31.9 31:59.1 10:10/M
14 Katie Schaffer Chelsea MI 138 41 109 32:55.5 33:21.9 10:37/M
15 Kelley Forbes Ann Arbor MI 59 42 119 34:20.2 34:52.6 11:05/M
16 Nancy Stock Flat Rock MI 149 40 125 35:30.8 36:05.4 11:27/M
17 Debra Bordeau Lasalle MI 13 41 138 41:08.1 41:39.5 13:16/M
18 Sandra Nelson Detroit 292 44 151 49:36.6 49:50.2 16:00/M

Female 45 to 49

Place Name City Bib NoAge OverallChip TimeGun Time Pace
1 Genevieve Dargis Ann Arbor 204 49 20 25:24.8 25:36.3 8:12/M
2 Tatiana Botero Ann Arbor MI 14 46 21 25:25.6 25:38.6 8:12/M
3 Jean Fisher Palmyra MI 56 47 23 25:39.6 25:52.0 8:16/M
4 Anne Kreykes Ann Arbor MI 213 48 26 26:11.5 26:11.5 8:27/M
5 Deanna Merryman Shadyside 262 46 71 29:32.9 29:52.0 9:32/M
6 Lynne Rago Ann Arbor 224 47 90 31:12.3 31:18.7 10:04/M
7 Karen Kelly Adrian MI 86 47 97 31:49.2 32:00.9 10:16/M
8 Dawn Evans Ann Arbor MI 53 47 100 31:50.3 32:12.9 10:16/M
9 Denise Lotz Grass Lake MI 97 47 101 32:01.8 32:22.6 10:20/M
10 Melissa Berlin Oak Park MI 9 46 108 32:32.7 32:46.8 10:30/M
11 Susan Dentel Ann Arbor MI 40 49 112 33:04.3 33:12.4 10:40/M
12 Theresa Schenk Ann Arbor MI 139 48 120 34:21.8 34:53.6 11:05/M
13 Malinda Matney Ann Arbor MI 102 46 127 36:48.4 37:16.6 11:52/M
14 Sandra Siegel Riverview 274 47 128 37:47.6 38:04.9 12:11/M
15 Cafhy Skotzke Canton 232 45 143 43:59.5 44:16.6 14:11/M
16 Doretha McDonald Ypsilanti MI 105 47 145 44:01.8 44:20.1 14:12/M

Female 50 to 54

Place Name City Bib NoAge OverallChip TimeGun Time Pace
1 Kathleen Mihelick Canton MI 109 50 29 26:19.1 26:24.0 8:29/M
2 Jacqueline Little Climax MI 95 50 34 26:48.7 27:04.4 8:39/M
3 Tina Vecchio Chittenango NY 163 53 40 27:34.9 27:46.6 8:54/M
4 Karen Gale Grosse Pointe Woods 64 50 50 28:16.2 28:30.4 9:07/M
5 Amy Diehl Saline MI 42 50 74 29:33.5 29:35.8 9:32/M
6 Susan Agnew Ann Arbor MI 2 51 82 30:29.5 30:41.2 9:50/M
7 Sherry Perkins Ypsilanti MI 125 53 114 33:25.1 33:44.4 10:47/M
8 Yolanda Huizar MI 81 53 130 38:15.5 38:38.7 12:20/M
9 Brenda Leggett Rossford OH 93 52 131 38:38.0 39:02.2 12:28/M
10 Lisa Molina 185 52 133 38:51.5 39:09.8 12:32/M
11 Pam Cusumano Brighton 203 51 147 44:04.0 44:20.7 14:13/M

Female 55 to 59

Place Name City Bib NoAge OverallChip TimeGun Time Pace
1 Anne Garcia Ann Arbor MI 66 58 67 29:28.8 29:36.1 9:30/M
2 Conchita SnuverinkPinckney 233 55 93 31:27.7 31:56.1 10:09/M
3 Sheryl Pomerance West Bloomfield MI 328 57 113 33:04.5 33:14.6 10:40/M
4 Sheryl Faix Ann Arbor MI 246 59 118 33:43.9 34:08.4 10:53/M
5 Susan Parent Troy MI 123 56 121 34:22.2 34:44.2 11:05/M
6 Sofia Merajver Ann Arbor MI 261 59 135 39:57.5 40:30.1 12:53/M

Female 60 to 64

Place Name City Bib NoAge OverallChip TimeGun Time Pace
1 Betsy Noren Ann Arbor MI 221 60 69 29:29.8 29:57.5 9:31/M
2 Jean Ireland Birmingham 251 63 105 32:25.4 33:00.0 10:27/M
3 Judy Jorgensen Whitmore Lake MI 84 60 122 34:53.1 35:19.1 11:15/M
4 Denice Virgo Ypsilanti MI 164 60 134 39:18.0 39:40.0 12:41/M
5 Nancy Swain Lansing MI 153 62 149 44:52.9 45:15.9 14:28/M
6 Jan Lynch East Lansing MI 98 61 150 44:53.5 45:17.2 14:29/M

Male Open Winners

Place Name City Bib NoAge OverallChip TimeGun Time Pace
1 John Munro Whitmore Lake MI 116 19 1 16:37.8 16:37.8 5:22/M

Male 0 and under

Place Name City Bib NoAge OverallChip TimeGun Time Pace
1 James Busch 334 0 36 22:47.3 24:32.6 7:21/M
2 David Vale Ann Arbor MI 282 0 52 23:35.0 23:42.4 7:36/M
3 James Moss Plymouth 218 0 59 24:00.0 24:04.1 7:45/M
4 Andrew Holland Portage MI 79 0 84 26:46.9 26:49.6 8:38/M
5 Clark Gill Howell MI 68 0 105 29:20.9 29:44.3 9:28/M
6 Lee Randels Oceanside MI 130 0 129 34:57.4 35:00.1 11:16/M
7 Greg Bradford Clio MI 15 0 139 36:23.2 36:25.9 11:44/M

Male 5 to 9

Place Name City Bib NoAge OverallChip TimeGun Time Pace
1 Amaru Palma Ann Arbor 266 8 147 47:30.0 48:10.4 15:19/M

Male 10 to 14

Place Name City Bib NoAge OverallChip TimeGun Time Pace
1 Andrew Schweers Belleville 271 11 31 22:11.0 22:21.6 7:09/M
2 Luke Blongh 315 13 55 23:46.4 24:02.1 7:40/M

Male 15 to 19

Place Name City Bib NoAge OverallChip TimeGun Time Pace
1 George Gray Ann Arbor MI 313 18 7 18:33.8 18:34.0 5:59/M
2 Acer Xu Ann Arbor MI 175 16 8 18:36.8 18:38.1 6:00/M
3 Mitchell Henschel 314 15 18 20:04.0 20:12.0 6:28/M
4 Sam Ketzner 308 15 33 22:30.4 22:31.7 7:15/M

Male 20 to 24

Place Name City Bib NoAge OverallChip TimeGun Time Pace
1 Mark Podhorez Ann Arbor MI 128 20 19 20:07.0 20:10.4 6:29/M
2 Benito Aquino Ann Arbor MI 236 24 20 20:09.9 20:11.0 6:30/M
3 Randall Abbott Ann Arbor 235 24 21 20:15.4 20:16.1 6:32/M
4 Zachary Carpenter Whitmore Lake MI 25 20 25 20:50.4 20:51.4 6:43/M
5 Michael BlackshearAnn Arbor MI 200 22 38 22:48.7 23:06.2 7:21/M
6 Tyler Parent Troy MI 124 21 40 22:53.7 23:13.7 7:23/M
7 Daniel Kvamme Grosse Pointe Woods 90 23 93 27:47.6 28:02.0 8:58/M
8 Taylor Blachley Ann Arbor MI 11 24 112 30:23.8 30:31.9 9:48/M

Male 25 to 29

Place Name City Bib NoAge OverallChip TimeGun Time Pace
1 Matt Smiarowski South Lyon MI 296 25 5 17:48.0 17:48.0 5:45/M
2 Scott Moore Rochester Hills MI 113 28 6 18:31.7 18:33.0 5:58/M
3 Dante Michael 312 25 9 18:37.7 18:38.7 6:00/M
4 Mike Vecchio Ann Arbor MI 283 25 17 19:57.7 20:07.4 6:26/M
5 Scott Kohen Ann Arbor 254 28 29 21:59.2 22:17.6 7:05/M
6 Michael Cieslar Ann Arbor MI 309 26 39 22:51.5 23:01.1 7:22/M
7 Justin McCormack Troy 258 28 42 22:55.2 22:58.3 7:24/M
8 Adam Heberling Ann Arbor MI 209 27 53 23:38.8 23:43.8 7:37/M
9 Dylan McAfee Adrian MI 103 27 54 23:43.6 23:46.0 7:39/M
10 Brett Izzo Ann Arbor 210 26 57 23:56.3 24:04.4 7:43/M
11 Seth Siegel Riverview 276 25 69 25:10.3 25:15.6 8:07/M
12 Michael Gebert 197 29 73 25:29.9 25:59.7 8:13/M
13 Alex Milshteyn Ann Arbor MI 303 29 91 27:46.2 27:46.2 8:57/M
14 Justin Kressir 193 25 101 28:42.2 29:11.6 9:15/M
15 Chuck Okafor Northville 222 28 104 29:10.6 29:10.6 9:25/M
16 Chrisher Drabicki Canton MI 45 25 117 30:52.9 31:15.3 9:57/M
17 Ravi Shukla Farmington Hills 230 28 119 31:16.4 31:16.4 10:05/M
18 Bryan Emmendorfer Ann Arbor MI 50 27 123 32:18.9 32:30.5 10:25/M
19 Josh Faber Oak Park MI 54 26 124 32:32.6 32:46.6 10:30/M
20 Roberto Diggs-PoweYpsilanti 205 27 126 33:52.1 33:52.1 10:55/M
21 Jeny Vanable 327 28 127 34:07.0 34:33.3 11:00/M
22 Ben Tidman Ann Arbor MI 157 28 133 35:26.9 35:55.4 11:26/M

Male 30 to 34

Place Name City Bib NoAge OverallChip TimeGun Time Pace
1 Billy Vanvianen Canton MI 285 31 3 17:05.0 17:07.8 5:31/M
2 Shaun Jordan Howell 252 30 4 17:20.4 17:20.7 5:35/M
3 Mirko Maraldi Ann Arbor MI 101 30 14 19:37.5 19:41.1 6:20/M
4 Andreas Sigg Naples 277 33 15 19:41.2 19:45.1 6:21/M
5 Nick Beach 311 31 16 19:57.0 19:57.0 6:26/M
6 Michael Cox Ypsilanti MI 35 31 61 24:07.2 24:13.4 7:47/M
7 Tom Koval Manchester MI 89 33 62 24:14.7 24:39.4 7:49/M
8 Joe Bellmann 189 34 72 25:22.9 25:26.4 8:11/M
9 Firas Obeid Ypsilanti MI 119 32 86 27:18.7 27:39.3 8:48/M
10 Sean Lynn Waterford MI 99 32 90 27:43.2 27:54.3 8:56/M
11 Eric Krause 325 31 103 29:06.8 29:37.2 9:23/M
12 Walter Caldwell Saline MI 201 31 111 30:20.3 30:41.9 9:47/M
13 Arnold Jay Strass 324 31 128 34:09.5 34:40.1 11:01/M
14 Stephen HarringtonCanton MI 76 32 130 34:59.5 35:37.2 11:17/M
15 Tim Danielak Beaverton MI 37 33 132 35:16.9 35:45.5 11:23/M
16 Bill Austin South Glens Falls NY 4 33 136 35:39.4 35:39.4 11:30/M
17 Egon Ranghini Ann Arbor MI 131 30 140 38:30.7 38:30.7 12:25/M
18 James Avery Los Gatos CA 6 32 143 40:22.2 40:55.5 13:01/M
19 David Braley Ann Arbor MI 17 30 144 41:33.0 42:07.1 13:24/M
20 Rodolfo Palma Ann Arbor MI 267 34 146 47:30.0 48:10.1 15:19/M

Male 35 to 39

Place Name City Bib NoAge OverallChip TimeGun Time Pace
1 Jason Buquet Ann Arbor MI 22 39 11 19:00.3 19:01.4 6:08/M
2 Scott Shobe Mahomet IL 142 37 34 22:37.9 22:39.6 7:18/M
3 Ryan Kaltenbach Saginaw MI 211 39 47 23:13.7 23:30.8 7:29/M
4 Nicholas Weygand Dundee MI 168 36 51 23:24.5 23:33.7 7:33/M
5 Andy Sippel Sun Prairie WI 144 37 56 23:55.4 24:00.1 7:43/M
6 Brandon Zienke 298 35 63 24:24.2 24:37.4 7:52/M
7 Dan Baranyai 180 37 74 25:33.0 25:35.1 8:15/M
8 Christian Casper Ann Arbor MI 28 35 76 26:03.9 26:35.7 8:24/M
9 Daniel Alligood Winston GA 3 39 83 26:25.2 26:25.2 8:31/M
10 Joel Welter 196 36 87 27:28.4 28:02.4 8:52/M
11 Josh Evans Saline 245 39 88 27:41.6 28:08.9 8:56/M
12 Stephen Stefanini 184 38 94 27:49.6 27:59.1 8:58/M
13 Nathan ChristiansoBangor 241 35 96 28:23.0 28:52.4 9:09/M
14 Josh Burge Ann Arbor 240 37 100 28:38.6 28:44.0 9:14/M
15 Jeffrey Mix 188 37 113 30:30.3 30:39.3 9:50/M
16 Jason Yarbrough Hampton GA 176 38 115 30:44.5 31:13.1 9:55/M
17 Marvin Najor Farmington Hills MI 117 39 120 31:27.8 31:43.5 10:09/M
18 Nelson Charron South Glens Falls NY 30 36 135 35:37.4 35:37.4 11:29/M

Male 40 to 44

Place Name City Bib NoAge OverallChip TimeGun Time Pace
1 John Graham Tekonsha MI 295 40 2 16:47.5 16:49.1 5:25/M
2 Jeff Zubler 181 40 12 19:19.0 19:20.1 6:14/M
3 Joel Dalton Ann Arbor MI 243 44 13 19:26.9 19:30.2 6:16/M
4 David Strach Fenton MI 300 42 26 21:32.6 21:44.7 6:57/M
5 Curt Whitefield White Lake MI 169 43 37 22:47.6 23:00.8 7:21/M
6 Dan Bonenberger Ann Arbor 305 43 43 22:59.8 22:59.8 7:25/M
7 Timothy Osten Schaumburg 265 40 45 23:10.5 23:23.7 7:28/M
8 Chris Mitchell Ypsilanti MI 111 43 46 23:12.0 23:20.4 7:29/M
9 Michael Osborn Howell 264 43 48 23:19.5 23:48.2 7:31/M
10 Amaechi Udoji Ann Arbor MI 159 41 80 26:21.9 26:42.7 8:30/M
11 Chip Davis 299 44 89 27:42.0 27:47.3 8:56/M
12 Charles Ketner Columbia 253 42 95 27:51.0 27:56.8 8:59/M
13 Richard Brown Clinton MI 21 42 97 28:26.1 28:50.8 9:10/M
14 Armando Pulido Sylmar 223 41 107 29:26.3 29:31.5 9:30/M
15 Mike Hazard Bakersfield 208 43 108 29:28.0 29:32.8 9:30/M
16 Phillip Barton Kennesaw GA 8 43 118 31:09.6 31:18.7 10:03/M
17 Joe Bolstrum Canton MI 304 43 125 33:11.1 33:44.8 10:42/M
18 Kevin Moore Alpharetta GA 321 42 131 35:15.1 35:46.7 11:22/M
19 Carl Evans Novi MI 52 43 134 35:30.5 35:53.1 11:27/M

Male 45 to 49

Place Name City Bib NoAge OverallChip TimeGun Time Pace
1 Roger Sunahara Ann Arbor MI 151 49 10 18:58.5 19:01.2 6:07/M
2 Eric Straka Ann Arbor MI 279 46 22 20:40.4 20:40.4 6:40/M
3 Jeffrey Clark Ann Arbor MI 31 46 23 20:41.4 20:53.2 6:40/M
4 George Ketzner 307 45 24 20:49.0 20:51.4 6:43/M
5 Ben Mondloch Ann Arbor MI 301 49 27 21:44.0 21:55.4 7:01/M
6 Scott Siegel Riverview 275 48 32 22:11.5 22:17.9 7:09/M
7 Tom Crawford Ann Arbor MI 242 47 44 23:04.3 23:19.4 7:26/M
8 William Miller South Lyon MI 186 45 58 24:00.0 24:11.1 7:45/M
9 Jim Wilson Clyde Twp MI 171 48 64 24:38.2 24:56.4 7:57/M
10 Jeff Morris Saline MI 115 46 66 24:49.4 25:08.6 8:00/M
11 Daniel Coffey Stratham NH 32 46 68 25:03.4 25:27.6 8:05/M
12 John Pint 191 46 70 25:14.8 25:20.7 8:08/M
13 Mike Kreykes Ann Arbor MI 215 47 75 25:58.3 26:10.1 8:23/M
14 Larry Coleman 195 49 78 26:18.6 26:27.3 8:29/M
15 Jim Zittel Waterford MI 291 49 82 26:23.1 26:32.6 8:31/M
16 Jeffrey Reiter Kenosha WI 133 45 102 28:50.5 29:21.6 9:18/M
17 Brad Evans Ann Arbor MI 51 46 121 31:52.2 32:14.6 10:17/M
18 Richard Wae Dublin CA 165 45 122 31:52.9 32:13.7 10:17/M

Male 50 to 54

Place Name City Bib NoAge OverallChip TimeGun Time Pace
1 Craig A. Theros Ann Arbor MI 281 52 30 22:04.3 22:07.0 7:07/M
2 Domingo Valadez Temperance MI 160 53 35 22:43.5 22:51.5 7:20/M
3 Nick Marano 316 50 50 23:22.4 23:24.1 7:32/M
4 Kevin Norris Ann Arbor MI 118 52 60 24:02.2 24:12.4 7:45/M
5 Kent Land Waterford 255 50 67 24:58.1 25:01.1 8:03/M
6 Dave Mihelick Canton MI 108 51 77 26:18.3 26:23.6 8:29/M
7 Doug Pontious Wolverine Lake MI 326 53 81 26:22.7 26:29.7 8:30/M
8 Eric Packard Annapolis MD 120 52 98 28:33.6 28:40.4 9:13/M
9 Jim Diroff Carleton MI 206 51 137 35:55.7 36:31.1 11:35/M
10 Paul Shuffler St.simons Island GA 143 51 141 38:42.9 38:44.0 12:29/M

Male 55 to 59

Place Name City Bib NoAge OverallChip TimeGun Time Pace
1 William Bustillos Ann Arbor MI 24 58 49 23:21.4 23:24.4 7:32/M
2 Tom McCarthy Ada MI 306 59 71 25:20.8 25:44.2 8:10/M
3 William Crawforth Ann Arbor MI 36 59 85 27:11.7 27:27.3 8:46/M
4 Paul Padot Temperance MI 121 56 99 28:37.5 29:05.1 9:14/M
5 Troy Thomas Ionia MI 182 55 138 35:55.8 36:05.9 11:35/M
6 Melvin McInnis Ann Arbor MI 260 56 142 39:58.7 40:31.1 12:54/M
7 Charlie Fry West Newton PA 63 57 145 43:59.5 44:30.3 14:11/M

Male 60 to 64

Place Name City Bib NoAge OverallChip TimeGun Time Pace
1 John Reed Ann Arbor MI 289 61 28 21:51.5 21:54.6 7:03/M
2 Timothy Williams Ann Arbor MI 170 60 41 22:54.7 23:02.7 7:23/M
3 Charlie Brown Ann Arbor MI 239 63 65 24:48.5 25:03.5 8:00/M
4 Randy Fielder Adrian MI 247 61 79 26:19.7 27:00.3 8:29/M
5 Michael Galea Ann Arbor MI 65 63 92 27:47.1 27:52.3 8:58/M
6 Steve Ott Ann Arbor MI 330 63 106 29:26.2 29:39.0 9:30/M
7 Peter Van Hoek Dexter MI 162 60 110 30:10.0 30:19.4 9:44/M
8 Robert Zife 290 61 116 30:46.2 31:09.4 9:55/M

Male 65 to 69

Place Name City Bib NoAge OverallChip TimeGun Time Pace
1 Dave Blough Dexter MI 317 66 109 29:56.7 30:13.0 9:39/M

Male 75 to 79

Place Name City Bib NoAge OverallChip TimeGun Time Pace
1 Jon Desenbeg 319 78 114 30:39.2 30:58.8 9:53/M
*Overall place
within gender.





UA 5k Run and Pub Crawl
Overall Results
August 13, 2012
Results By RF Timing Running Fit

Place Name City Bib NoAge Gender Chip TimeGun Time Pace
1 John Munro Whitmore Lake MI 116 19 M 16:37.8 16:37.8 5:22/M
2 John Graham Tekonsha MI 295 40 M 16:47.5 16:49.1 5:25/M
3 Billy Vanvianen Canton MI 285 31 M 17:05.0 17:07.8 5:31/M
4 Shaun Jordan Howell MI 252 30 M 17:20.4 17:20.7 5:35/M
5 Matt Smiarowski South Lyon MI 296 25 M 17:48.0 17:48.0 5:45/M
6 Scott Moore Rochester Hills MI 113 28 M 18:31.7 18:33.0 5:58/M
7 George Gray Ann Arbor MI 313 18 M 18:33.8 18:34.0 5:59/M
8 Acer Xu Ann Arbor MI 175 16 M 18:36.8 18:38.1 6:00/M
9 Dante Michael 312 25 M 18:37.7 18:38.7 6:00/M
10 Roger Sunahara Ann Arbor MI 151 49 M 18:58.5 19:01.2 6:07/M
11 Jason Buquet Ann Arbor MI 22 39 M 19:00.3 19:01.4 6:08/M
12 Jeff Zubler 181 40 M 19:19.0 19:20.1 6:14/M
13 Joel Dalton Ann Arbor MI 243 44 M 19:26.9 19:30.2 6:16/M
14 Mirko Maraldi Ann Arbor MI 101 30 M 19:37.5 19:41.1 6:20/M
15 Andreas Sigg Naples 277 33 M 19:41.2 19:45.1 6:21/M
16 Nick Beach 311 31 M 19:57.0 19:57.0 6:26/M
17 Mike Vecchio Ann Arbor MI 283 25 M 19:57.7 20:07.4 6:26/M
18 Mitchell Henschel 314 15 M 20:04.0 20:12.0 6:28/M
19 Mark Podhorez Ann Arbor MI 128 20 M 20:07.0 20:10.4 6:29/M
20 Benito Aquino Ann Arbor MI 236 24 M 20:09.9 20:11.0 6:30/M
21 Randall Abbott Ann Arbor 235 24 M 20:15.4 20:16.1 6:32/M
22 Eric Straka Ann Arbor MI 279 46 M 20:40.4 20:40.4 6:40/M
23 Jeffrey Clark Ann Arbor MI 31 46 M 20:41.4 20:53.2 6:40/M
24 George Ketzner 307 45 M 20:49.0 20:51.4 6:43/M
25 Zachary Carpenter Whitmore Lake MI 25 20 M 20:50.4 20:51.4 6:43/M
26 David Strach Fenton MI 300 42 M 21:32.6 21:44.7 6:57/M
27 Gianna Lete Ann Arbor MI 256 43 F 21:36.1 21:36.1 6:57/M
28 Abby Fougerousse Livonia MI 249 22 F 21:40.1 21:49.6 6:59/M
29 Ben Mondloch Ann Arbor MI 301 49 M 21:44.0 21:55.4 7:01/M
30 John Reed Ann Arbor MI 289 61 M 21:51.5 21:54.6 7:03/M
31 Scott Kohen Ann Arbor 254 28 M 21:59.2 22:17.6 7:05/M
32 Molly Harris Ann Arbor MI 77 22 F 21:59.9 21:59.9 7:05/M
33 Craig A. Theros Ann Arbor MI 281 52 M 22:04.3 22:07.0 7:07/M
34 Andrew Schweers Belleville MI 271 11 M 22:11.0 22:21.6 7:09/M
35 Scott Siegel Riverview 275 48 M 22:11.5 22:17.9 7:09/M
36 Naomi Toben Ypsilanti MI 158 35 F 22:22.9 22:31.1 7:13/M
37 Sam Ketzner 308 15 M 22:30.4 22:31.7 7:15/M
38 Maya Aravind Ann Arbor 198 30 F 22:34.2 22:41.3 7:17/M
39 Scott Shobe Mahomet IL 142 37 M 22:37.9 22:39.6 7:18/M
40 Domingo Valadez Temperance MI 160 53 M 22:43.5 22:51.5 7:20/M
41 James Busch 334 0 M 22:47.3 24:32.6 7:21/M
42 Curt Whitefield White Lake MI 169 43 M 22:47.6 23:00.8 7:21/M
43 Michael BlackshearAnn Arbor MI 200 22 M 22:48.7 23:06.2 7:21/M
44 Michael Cieslar Ann Arbor MI 309 26 M 22:51.5 23:01.1 7:22/M
45 Tyler Parent Troy MI 124 21 M 22:53.7 23:13.7 7:23/M
46 Timothy Williams Ann Arbor MI 170 60 M 22:54.7 23:02.7 7:23/M
47 Justin McCormack Troy 258 28 M 22:55.2 22:58.3 7:24/M
48 Dan Bonenberger Ann Arbor MI 305 43 M 22:59.8 22:59.8 7:25/M
49 Tom Crawford Ann Arbor MI 242 47 M 23:04.3 23:19.4 7:26/M
50 Timothy Osten Schaumburg 265 40 M 23:10.5 23:23.7 7:28/M
51 Nicole Schilde Ypsilanti 270 33 F 23:10.8 23:16.1 7:28/M
52 Chris Mitchell Ypsilanti MI 111 43 M 23:12.0 23:20.4 7:29/M
53 Ryan Kaltenbach Saginaw MI 211 39 M 23:13.7 23:30.8 7:29/M
54 Michael Osborn Howell 264 43 M 23:19.5 23:48.2 7:31/M
55 William Bustillos Ann Arbor MI 24 58 M 23:21.4 23:24.4 7:32/M
56 Nick Marano 316 50 M 23:22.4 23:24.1 7:32/M
57 Nicholas Weygand Dundee MI 168 36 M 23:24.5 23:33.7 7:33/M
58 Teresa Taylor Royal Oak MI 155 34 F 23:29.0 23:34.4 7:35/M
59 Kirsten Terry Ann Arbor 280 27 F 23:35.0 23:42.1 7:36/M
60 David Vale Ann Arbor MI 282 0 M 23:35.0 23:42.4 7:36/M
61 Theresa Mull Plymouth MI 219 39 F 23:35.1 23:51.5 7:36/M
62 Adam Heberling Ann Arbor MI 209 27 M 23:38.8 23:43.8 7:37/M
63 Elizabeth SchweersBelleville MI 272 43 F 23:39.0 23:49.6 7:38/M
64 Dylan McAfee Adrian MI 103 27 M 23:43.6 23:46.0 7:39/M
65 Luke Blongh 315 13 M 23:46.4 24:02.1 7:40/M
66 Nell Compernolle Ann Arbor MI 33 28 F 23:48.9 23:58.4 7:41/M
67 Jennifer RasmussenDexter MI 132 41 F 23:53.1 23:53.1 7:42/M
68 Andy Sippel Sun Prairie WI 144 37 M 23:55.4 24:00.1 7:43/M
69 Brett Izzo Ann Arbor 210 26 M 23:56.3 24:04.4 7:43/M
70 William Miller South Lyon MI 186 45 M 24:00.0 24:11.1 7:45/M
71 James Moss Plymouth 218 0 M 24:00.0 24:04.1 7:45/M
72 Denise Dashner Temperance MI 38 42 F 24:01.5 24:09.6 7:45/M
73 Kevin Norris Ann Arbor MI 118 52 M 24:02.2 24:12.4 7:45/M
74 Michael Cox Ypsilanti MI 35 31 M 24:07.2 24:13.4 7:47/M
75 Stephanie Gerkin Howell MI 67 28 F 24:07.3 24:17.7 7:47/M
76 Tom Koval Manchester MI 89 33 M 24:14.7 24:39.4 7:49/M
77 Brandon Zienke 298 35 M 24:24.2 24:37.4 7:52/M
78 Kate Bennett Ann Arbor 238 0 F 24:25.5 24:37.1 7:53/M
79 Meredith Petty Ann Arbor MI 268 0 F 24:25.5 24:37.6 7:53/M
80 Jim Wilson Clyde Twp MI 171 48 M 24:38.2 24:56.4 7:57/M
81 Sylvia Fisher Adrian MI 57 20 F 24:40.8 24:53.4 7:57/M
82 Charlie Brown Ann Arbor MI 239 63 M 24:48.5 25:03.5 8:00/M
83 Jeff Morris Saline MI 115 46 M 24:49.4 25:08.6 8:00/M
84 Kent Land Waterford MI 255 50 M 24:58.1 25:01.1 8:03/M
85 Daniel Coffey Stratham NH 32 46 M 25:03.4 25:27.6 8:05/M
86 Seth Siegel Riverview 276 25 M 25:10.3 25:15.6 8:07/M
87 John Pint 191 46 M 25:14.8 25:20.7 8:08/M
88 Anita Ramamurthy Canton 225 31 F 25:17.5 25:22.1 8:09/M
89 Tom McCarthy Ada MI 306 59 M 25:20.8 25:44.2 8:10/M
90 Joe Bellmann 189 34 M 25:22.9 25:26.4 8:11/M
91 Sarah Bellmann 190 33 F 25:23.5 25:27.2 8:11/M
92 Genevieve Dargis Ann Arbor 204 49 F 25:24.8 25:36.3 8:12/M
93 Tatiana Botero Ann Arbor MI 14 46 F 25:25.6 25:38.6 8:12/M
94 Michael Gebert 197 29 M 25:29.9 25:59.7 8:13/M
95 Dan Baranyai 180 37 M 25:33.0 25:35.1 8:15/M
96 Gerri Harmer Brownstown MI 74 44 F 25:36.4 25:52.9 8:15/M
97 Jean Fisher Palmyra MI 56 47 F 25:39.6 25:52.0 8:16/M
98 Mike Kreykes Ann Arbor MI 215 47 M 25:58.3 26:10.1 8:23/M
99 Leah Bauer Ann Arbor 199 25 F 26:02.8 26:18.5 8:24/M
100 Kayla Renier Ann Arbor 226 27 F 26:03.8 26:18.1 8:24/M

Place Name City Bib NoAge Gender Chip TimeGun Time Pace
101 Christian Casper Ann Arbor MI 28 35 M 26:03.9 26:35.7 8:24/M
102 Anne Kreykes Ann Arbor MI 213 48 F 26:11.5 26:11.5 8:27/M
103 Lauren Sigler 335 27 F 26:14.5 28:00.0 8:28/M
104 Donna Levos Saline MI 257 39 F 26:16.4 26:36.4 8:28/M
105 Dave Mihelick Canton MI 108 51 M 26:18.3 26:23.6 8:29/M
106 Larry Coleman 195 49 M 26:18.6 26:27.3 8:29/M
107 Kathleen Mihelick Canton MI 109 50 F 26:19.1 26:24.0 8:29/M
108 Randy Fielder Adrian MI 247 61 M 26:19.7 27:00.3 8:29/M
109 Lauren Grove Fenton MI 71 25 F 26:21.4 26:50.6 8:30/M
110 Amaechi Udoji Ann Arbor MI 159 41 M 26:21.9 26:42.7 8:30/M
111 Doug Pontious Wolverine Lake MI 326 53 M 26:22.7 26:29.7 8:30/M
112 Jim Zittel Waterford MI 291 49 M 26:23.1 26:32.6 8:31/M
113 Annette Hauswirth Ann Arbor MI 78 23 F 26:23.2 26:52.6 8:31/M
114 Daniel Alligood Winston GA 3 39 M 26:25.2 26:25.2 8:31/M
115 Shannon Racine Chelsea MI 129 33 F 26:26.2 26:43.7 8:32/M
116 Amanda Nichols Ann Arbor MI 220 31 F 26:39.9 27:06.2 8:36/M
117 Andrew Holland Portage MI 79 0 M 26:46.9 26:49.6 8:38/M
118 Jacqueline Little Climax MI 95 50 F 26:48.7 27:04.4 8:39/M
119 Nancy Herlocher Ann Arbor MI 250 44 F 26:52.8 27:06.2 8:40/M
120 Stephanie Little Climax MI 96 28 F 26:55.0 27:10.6 8:41/M
121 Jennifer Javor Plymouth MI 83 35 F 27:01.2 27:13.3 8:43/M
122 Kelly Cates Plymouth MI 29 28 F 27:01.5 27:13.6 8:43/M
123 William Crawforth Ann Arbor MI 36 59 M 27:11.7 27:27.3 8:46/M
124 Firas Obeid Ypsilanti MI 119 32 M 27:18.7 27:39.3 8:48/M
125 Joel Welter 196 36 M 27:28.4 28:02.4 8:52/M
126 Carrie Wojan Ann Arbor MI 173 40 F 27:34.5 27:44.1 8:54/M
127 Tina Vecchio Chittenango NY 163 53 F 27:34.9 27:46.6 8:54/M
128 Christie ScharswakHowell 227 36 F 27:37.1 28:03.2 8:55/M
129 Colleen McGavin 332 24 F 27:39.3 27:54.3 8:55/M
130 Kristen Sukraw Ann Arbor 234 25 F 27:40.3 27:56.4 8:55/M
131 Josh Evans Saline MI 245 39 M 27:41.6 28:08.9 8:56/M
132 Chip Davis 299 44 M 27:42.0 27:47.3 8:56/M
133 Kristi Barry Plymouth MI 7 40 F 27:42.3 27:51.6 8:56/M
134 Sean Lynn Waterford MI 99 32 M 27:43.2 27:54.3 8:56/M
135 Tatiana McCulley Ann Arbor MI 259 24 F 27:45.8 27:52.9 8:57/M
136 Alex Milshteyn Ann Arbor MI 303 29 M 27:46.2 27:46.2 8:57/M
137 Michael Galea Ann Arbor MI 65 63 M 27:47.1 27:52.3 8:58/M
138 Daniel Kvamme Grosse Pointe Woods 90 23 M 27:47.6 28:02.0 8:58/M
139 Tracy Bragiel Livonia MI 16 40 F 27:48.3 27:56.6 8:58/M
140 Stephen Stefanini 184 38 M 27:49.6 27:59.1 8:58/M
141 Charles Ketner Columbia 253 42 M 27:51.0 27:56.8 8:59/M
142 Jessica Sigg Naples 278 30 F 27:58.8 28:03.1 9:01/M
143 Ashlee Lewis Adrian MI 94 0 F 28:07.7 28:38.1 9:04/M
144 Liz Koval Manchester MI 88 34 F 28:07.8 28:33.5 9:04/M
145 Karen Gale Grosse Pointe Woods 64 50 F 28:16.2 28:30.4 9:07/M
146 Megan Scribner Sterling Heights MI 140 35 F 28:22.0 28:34.6 9:09/M
147 Nathan ChristiansoBangor 241 35 M 28:23.0 28:52.4 9:09/M
148 Courtney Thompson Ann Arbor MI 156 32 F 28:23.1 28:30.1 9:09/M
149 Kristal Brown Clinton MI 20 34 F 28:25.2 28:50.7 9:10/M
150 Richard Brown Clinton MI 21 42 M 28:26.1 28:50.8 9:10/M
151 Melisa Susanto Ann Arbor MI 152 27 F 28:33.4 29:03.1 9:13/M
152 Eric Packard Annapolis MD 120 52 M 28:33.6 28:40.4 9:13/M
153 Bonnie Memering Wyandotte MI 107 33 F 28:37.5 28:55.1 9:14/M
154 Paul Padot Temperance MI 121 56 M 28:37.5 29:05.1 9:14/M
155 Josh Burge Ann Arbor 240 37 M 28:38.6 28:44.0 9:14/M
156 Justin Kressir 193 25 M 28:42.2 29:11.6 9:15/M
157 Linda Stuckey Ypsilanti MI 150 32 F 28:44.5 29:07.5 9:16/M
158 Julie Lothamer Howell MI 217 39 F 28:44.8 29:10.9 9:16/M
159 Regine Caruthers Ypsilanti MI 26 32 F 28:45.4 29:07.8 9:16/M
160 Jeffrey Reiter Kenosha WI 133 45 M 28:50.5 29:21.6 9:18/M
161 Natalie McCauley Ypsilanti MI 104 26 F 28:53.3 29:14.4 9:19/M
162 Anna Ziff Ann Arbor 284 18 F 28:55.3 29:18.3 9:20/M
163 Sarah Pfeiffle Ypsilanti MI 127 24 F 28:59.0 29:34.3 9:21/M
164 Sarah Rockol Garden City MI 134 23 F 29:02.6 29:38.0 9:22/M
165 Larra Aquino Ann Arbor 237 31 F 29:05.2 29:13.4 9:23/M
166 Rosa Bushkuhl Ann Arbor MI 23 26 F 29:06.3 29:31.4 9:23/M
167 Eric Krause 325 31 M 29:06.8 29:37.2 9:23/M
168 Alysa Konye Howell 212 41 F 29:07.1 29:33.5 9:24/M
169 Chuck Okafor Northville 222 28 M 29:10.6 29:10.6 9:25/M
170 Lisa Gill Howell MI 69 32 F 29:20.5 29:44.6 9:28/M
171 Clark Gill Howell MI 68 0 M 29:20.9 29:44.3 9:28/M
172 Steve Ott Ann Arbor MI 330 63 M 29:26.2 29:39.0 9:30/M
173 Armando Pulido Sylmar 223 41 M 29:26.3 29:31.5 9:30/M
174 Mike Hazard Bakersfield 208 43 M 29:28.0 29:32.8 9:30/M
175 Anne Garcia Ann Arbor MI 66 58 F 29:28.8 29:36.1 9:30/M
176 Lisa Short Beverly Hills MI 331 32 F 29:29.5 29:50.7 9:31/M
177 Betsy Noren Ann Arbor MI 221 60 F 29:29.8 29:57.5 9:31/M
178 Kim Fleming Dumont 248 25 F 29:31.9 29:43.1 9:31/M
179 Deanna Merryman Shadyside 262 46 F 29:32.9 29:52.0 9:32/M
180 Christina Cortez 297 31 F 29:33.1 29:44.5 9:32/M
181 Emily Diehl Saline MI 43 14 F 29:33.5 29:35.6 9:32/M
182 Amy Diehl Saline MI 42 50 F 29:33.5 29:35.8 9:32/M
183 Abbie Devee Ypsilanti MI 41 37 F 29:34.1 29:41.1 9:32/M
184 Leah Shever Chelsea MI 141 32 F 29:45.3 30:03.4 9:36/M
185 Katy Fritts Ann Arbor MI 62 32 F 29:48.1 30:07.7 9:37/M
186 Kristina Haley Dexter MI 72 32 F 29:48.3 30:06.6 9:37/M
187 Dave Blough Dexter MI 317 66 M 29:56.7 30:13.0 9:39/M
188 Peter Van Hoek Dexter MI 162 60 M 30:10.0 30:19.4 9:44/M
189 Shelly Jarenski Ann Arbor MI 322 34 F 30:14.5 30:20.6 9:45/M
190 Walter Caldwell Saline MI 201 31 M 30:20.3 30:41.9 9:47/M
191 Abigail Smith Ann Arbor MI 146 27 F 30:23.6 30:31.1 9:48/M
192 Taylor Blachley Ann Arbor MI 11 24 M 30:23.8 30:31.9 9:48/M
193 Julia Gower Adrian MI 70 27 F 30:28.3 30:39.6 9:50/M
194 Susan Agnew Ann Arbor MI 2 51 F 30:29.5 30:41.2 9:50/M
195 Jeffrey Mix 188 37 M 30:30.3 30:39.3 9:50/M
196 Joanna Elliott Ypsilanti MI 49 31 F 30:31.1 30:37.8 9:51/M
197 Jon Desenbeg 319 78 M 30:39.2 30:58.8 9:53/M
198 Chelsea Dulin Ypsilanti MI 46 39 F 30:41.7 30:48.5 9:54/M
199 Judy Wong Ann Arbor MI 174 24 F 30:43.4 31:12.8 9:55/M
200 Lidsay Babian 323 33 F 30:44.3 31:17.5 9:55/M

Place Name City Bib NoAge Gender Chip TimeGun Time Pace
201 Jason Yarbrough Hampton GA 176 38 M 30:44.5 31:13.1 9:55/M
202 Robert Zife 290 61 M 30:46.2 31:09.4 9:55/M
203 Susan Donaldson 320 42 F 30:46.5 31:20.1 9:55/M
204 Christopher DrabicCanton MI 45 25 M 30:52.9 31:15.3 9:57/M
205 Phillip Barton Kennesaw GA 8 43 M 31:09.6 31:18.7 10:03/M
206 Rebecca Briggs 293 37 F 31:09.9 31:30.3 10:03/M
207 Melissa Gutowski 294 37 F 31:11.8 31:32.5 10:04/M
208 Lynne Rago Ann Arbor MI 224 47 F 31:12.3 31:18.7 10:04/M
209 Angela Slavick Westland MI 145 32 F 31:15.6 31:15.6 10:05/M
210 Ravi Shukla Farmington Hills 230 28 M 31:16.4 31:16.4 10:05/M
211 Rochelle Chapman Ann Arbor MI 302 43 F 31:24.5 31:51.0 10:08/M
212 Conchita SnuverinkPinckney 233 55 F 31:27.7 31:56.1 10:09/M
213 Marvin Najor Farmington Hills MI 117 39 M 31:27.8 31:43.5 10:09/M
214 Marie Mills Ann Arbor MI 110 43 F 31:31.8 31:58.9 10:10/M
215 Heather Doll San Mateo CA 44 41 F 31:31.9 31:59.1 10:10/M
216 Kenzie Latham Ann Arbor MI 92 29 F 31:43.7 31:53.2 10:14/M
217 Karen Kelly Adrian MI 86 47 F 31:49.2 32:00.9 10:16/M
218 Jessica Black Ypsilanti MI 12 33 F 31:49.8 32:09.5 10:16/M
219 Jaye Peterson Ypsilanti MI 126 34 F 31:50.0 32:09.7 10:16/M
220 Dawn Evans Ann Arbor MI 53 47 F 31:50.3 32:12.9 10:16/M
221 Brad Evans Ann Arbor MI 51 46 M 31:52.2 32:14.6 10:17/M
222 Richard Wae Dublin CA 165 45 M 31:52.9 32:13.7 10:17/M
223 Denise Lotz Grass Lake MI 97 47 F 32:01.8 32:22.6 10:20/M
224 Marta Misztura Livonia MI 263 36 F 32:05.5 32:20.2 10:21/M
225 Tara Ward Whitmore Lake MI 166 31 F 32:09.4 32:20.0 10:22/M
226 Bryan Emmendorfer Ann Arbor MI 50 27 M 32:18.9 32:30.5 10:25/M
227 Kate Steele Adrian MI 148 35 F 32:20.8 32:33.0 10:26/M
228 Jean Ireland Birmingham 251 63 F 32:25.4 33:00.0 10:27/M
229 Kristen Wiseman Ypsilanti MI 172 28 F 32:28.5 32:48.1 10:28/M
230 Laura Hillson Redford MI 333 31 F 32:31.2 32:52.2 10:29/M
231 Josh Faber Oak Park MI 54 26 M 32:32.6 32:46.6 10:30/M
232 Melissa Berlin Oak Park MI 9 46 F 32:32.7 32:46.8 10:30/M
233 Katie Schaffer Chelsea MI 138 41 F 32:55.5 33:21.9 10:37/M
234 Emily Flinkstrom Ann Arbor MI 58 28 F 32:56.1 33:25.6 10:37/M
235 Priya Bhat Ann Arbor MI 10 33 F 32:57.3 33:23.4 10:38/M
236 Susan Dentel Ann Arbor MI 40 49 F 33:04.3 33:12.4 10:40/M
237 Sheryl Pomerance West Bloomfield MI 328 57 F 33:04.5 33:14.6 10:40/M
238 Joe Bolstrum Canton MI 304 43 M 33:11.1 33:44.8 10:42/M
239 Sherry Perkins Ypsilanti MI 125 53 F 33:25.1 33:44.4 10:47/M
240 Cherelle Weber Belleville MI 167 31 F 33:26.4 33:42.1 10:47/M
241 Lisa Swanick Belleville MI 154 0 F 33:26.5 33:41.6 10:47/M
242 Renee Zaddock Wyandotte MI 177 34 F 33:37.1 33:55.4 10:51/M
243 Sheryl Faix Ann Arbor MI 246 59 F 33:43.9 34:08.4 10:53/M
244 Roberto Diggs-PoweYpsilanti 205 27 M 33:52.1 33:52.1 10:55/M
245 Jeny Vanable 327 28 M 34:07.0 34:33.3 11:00/M
246 Arnold Jay Strass 324 31 M 34:09.5 34:40.1 11:01/M
247 Kelley Forbes Ann Arbor MI 59 42 F 34:20.2 34:52.6 11:05/M
248 Theresa Schenk Ann Arbor MI 139 48 F 34:21.8 34:53.6 11:05/M
249 Susan Parent Troy MI 123 56 F 34:22.2 34:44.2 11:05/M
250 Judy Jorgensen Whitmore Lake MI 84 60 F 34:53.1 35:19.1 11:15/M
251 Lee Randels Oceanside MI 130 0 M 34:57.4 35:00.1 11:16/M
252 Stephen HarringtonCanton MI 76 32 M 34:59.5 35:37.2 11:17/M
253 Gretchen HarringtoCanton MI 75 31 F 35:12.0 35:48.6 11:21/M
254 Kevin Moore Alpharetta GA 321 42 M 35:15.1 35:46.7 11:22/M
255 Tim Danielak Beaverton MI 37 33 M 35:16.9 35:45.5 11:23/M
256 Nora Hall Ann Arbor MI 73 28 F 35:25.4 35:54.0 11:25/M
257 Ben Tidman Ann Arbor MI 157 28 M 35:26.9 35:55.4 11:26/M
258 Carl Evans Novi MI 52 43 M 35:30.5 35:53.1 11:27/M
259 Nancy Stock Flat Rock MI 149 40 F 35:30.8 36:05.4 11:27/M
260 Nelson Charron South Glens Falls NY 30 36 M 35:37.4 35:37.4 11:29/M
261 Bill Austin South Glens Falls NY 4 33 M 35:39.4 35:39.4 11:30/M
262 Jim Diroff Carleton MI 206 51 M 35:55.7 36:31.1 11:35/M
263 Troy Thomas Ionia MI 182 55 M 35:55.8 36:05.9 11:35/M
264 Lauren Abro Farmington Hills MI 1 31 F 36:03.7 36:19.4 11:38/M
265 Greg Bradford Clio MI 15 0 M 36:23.2 36:25.9 11:44/M
266 Malinda Matney Ann Arbor MI 102 46 F 36:48.4 37:16.6 11:52/M
267 Sandra Siegel Riverview 274 47 F 37:47.6 38:04.9 12:11/M
268 Caitlin Siegel Riverview 273 23 F 37:48.6 38:05.3 12:12/M
269 Yolanda Huizar MI MI 81 53 F 38:15.5 38:38.7 12:20/M
270 Egon Ranghini Ann Arbor MI 131 30 M 38:30.7 38:30.7 12:25/M
271 Brenda Leggett Rossford OH 93 52 F 38:38.0 39:02.2 12:28/M
272 Paul Shuffler St.simons Island GA 143 51 M 38:42.9 38:44.0 12:29/M
273 Tress Sanders Pinckney MI 137 24 F 38:46.2 39:11.7 12:30/M
274 Lisa Molina 185 52 F 38:51.5 39:09.8 12:32/M
275 Denice Virgo Ypsilanti MI 164 60 F 39:18.0 39:40.0 12:41/M
276 Sofia Merajver Ann Arbor MI 261 59 F 39:57.5 40:30.1 12:53/M
277 Melvin McInnis Ann Arbor MI 260 56 M 39:58.7 40:31.1 12:54/M
278 James Avery Los Gatos CA 6 32 M 40:22.2 40:55.5 13:01/M
279 Avery Crawford Los Gatos CA 5 6 F 40:22.5 40:55.9 13:01/M
280 Melissa Roberts Saline MI 269 35 F 40:44.8 41:12.4 13:08/M
281 Debra Bordeau Lasalle MI 13 41 F 41:08.1 41:39.5 13:16/M
282 Devonne Cooper Monroe MI 34 35 F 41:08.5 41:39.9 13:16/M
283 Hilary Braley Ann Arbor MI 18 27 F 41:26.0 42:00.2 13:22/M
284 David Braley Ann Arbor MI 17 30 M 41:33.0 42:07.1 13:24/M
285 Sarah Karpinen Clinton Township MI 85 39 F 43:50.1 44:14.3 14:08/M
286 Elizabeth Kerwin Bloomfield Hills MI 87 30 F 43:51.6 44:15.8 14:09/M
287 Cafhy Skotzke Canton 232 45 F 43:59.5 44:16.6 14:11/M
288 Charlie Fry West Newton PA 63 57 M 43:59.5 44:30.3 14:11/M
289 Chelsea Lehrbass Scottville 216 22 F 44:00.3 44:16.4 14:12/M
290 Doretha McDonald Ypsilanti MI 105 47 F 44:01.8 44:20.1 14:12/M
291 Jordan Cusumano Brighton MI 202 22 F 44:02.9 44:19.4 14:12/M
292 Pam Cusumano Brighton MI 203 51 F 44:04.0 44:20.7 14:13/M
293 Sarah Scott 310 30 F 44:08.0 44:11.3 14:14/M
294 Nancy Swain Lansing MI 153 62 F 44:52.9 45:15.9 14:28/M
295 Jan Lynch East Lansing MI 98 61 F 44:53.5 45:17.2 14:29/M
296 Rodolfo Palma Ann Arbor MI 267 34 M 47:30.0 48:10.1 15:19/M
297 Amaru Palma Ann Arbor 266 8 M 47:30.0 48:10.4 15:19/M
298 Sandra Nelson Detroit 292 44 F 49:36.6 49:50.2 16:00/M

Ann Arbor, MI
Provided by RF Timing